Time;durP1;ratioP1;P1;durP2;ratioP2;P2;SDS_P1;SDS_P2;PMS_P1;PMS_P2;Temp;Humidity;BMP_temperature;BMP_pressure;BME280_temperature;BME280_humidity;BME280_pressure;Samples;Min_cycle;Max_cycle;Signal;HPM_P1;HPM_P2
2022/06/07 00:00:43;;;;;;;0.32;0.20;;;23.20;60.20;;;;;;6276232;28;20109;-51
2022/06/07 00:03:45;;;;;;;0.20;0.20;;;23.20;60.10;;;;;;6274087;28;20051;-52
2022/06/07 00:06:47;;;;;;;0.10;0.10;;;23.10;60.00;;;;;;6275044;28;20905;-54
2022/06/07 00:09:49;;;;;;;0.20;0.20;;;23.10;60.00;;;;;;6282807;28;20036;-53
2022/06/07 00:12:52;;;;;;;0.30;0.13;;;23.10;59.90;;;;;;6279470;28;20081;-54
2022/06/07 00:15:53;;;;;;;0.30;0.25;;;23.10;59.80;;;;;;6279164;28;20071;-52
2022/06/07 00:18:55;;;;;;;0.20;0.20;;;23.00;59.80;;;;;;6281967;28;20885;-48
2022/06/07 00:21:57;;;;;;;1.10;0.20;;;23.00;59.70;;;;;;6281104;28;20142;-54
2022/06/07 00:24:59;;;;;;;0.40;0.20;;;23.00;59.70;;;;;;6279883;28;20047;-49
2022/06/07 00:28:01;;;;;;;0.30;0.20;;;23.00;59.60;;;;;;6282759;28;20039;-53
2022/06/07 00:31:03;;;;;;;0.22;0.20;;;22.90;59.60;;;;;;6279118;28;20150;-49
2022/06/07 00:34:05;;;;;;;0.25;0.20;;;23.00;59.60;;;;;;6279371;28;20058;-53
2022/06/07 00:37:07;;;;;;;0.15;0.15;;;23.00;59.60;;;;;;6279772;28;20091;-51
2022/06/07 00:40:09;;;;;;;0.20;0.20;;;22.90;59.50;;;;;;6278841;28;20052;-52
2022/06/07 00:43:12;;;;;;;0.25;0.22;;;23.00;59.60;;;;;;6279388;28;20039;-50
2022/06/07 00:46:16;;;;;;;0.20;0.20;;;23.00;59.50;;;;;;6276663;28;20067;-52
2022/06/07 00:49:20;;;;;;;0.28;0.10;;;23.00;59.60;;;;;;6280760;28;20967;-52
2022/06/07 00:52:24;;;;;;;0.30;0.30;;;23.00;59.50;;;;;;6274460;28;20085;-48
2022/06/07 00:55:27;;;;;;;0.45;0.35;;;23.00;59.50;;;;;;6261976;28;20420;-49
2022/06/07 00:58:36;;;;;;;0.20;0.20;;;22.90;59.50;;;;;;6262014;28;20044;-48
2022/06/07 01:01:41;;;;;;;0.25;0.20;;;23.00;59.60;;;;;;6264196;28;20392;-50
2022/06/07 01:04:42;;;;;;;0.50;0.20;;;23.00;59.60;;;;;;6260250;28;20349;-53
2022/06/07 01:10:58;;;;;;;0.25;0.20;;;23.10;59.60;;;;;;6267913;28;20541;-47
2022/06/07 01:14:04;;;;;;;0.40;0.22;;;22.90;59.50;;;;;;6262138;28;20496;-51
2022/06/07 01:17:07;;;;;;;0.13;0.13;;;23.20;59.70;;;;;;6266010;28;20415;-49
2022/06/07 01:20:12;;;;;;;0.30;0.20;;;22.90;60.00;;;;;;6264310;28;20956;-49
2022/06/07 01:23:15;;;;;;;0.20;0.20;;;22.80;59.40;;;;;;6263983;28;20333;-51
2022/06/07 01:26:17;;;;;;;0.30;0.30;;;22.90;59.40;;;;;;6265263;28;20410;-48
2022/06/07 01:29:19;;;;;;;0.20;0.20;;;22.90;59.40;;;;;;6263643;28;20968;-52
2022/06/07 01:32:22;;;;;;;0.40;0.20;;;23.00;59.50;;;;;;6262648;28;20875;-51
2022/06/07 01:35:23;;;;;;;0.28;0.20;;;23.00;59.50;;;;;;6265438;28;20235;-53
2022/06/07 01:38:25;;;;;;;0.32;0.30;;;22.90;59.40;;;;;;6262468;28;20320;-54
2022/06/07 01:44:47;;;;;;;0.22;0.20;;;23.00;59.50;;;;;;6260356;28;20462;-49
2022/06/07 01:47:49;;;;;;;0.20;0.20;;;22.90;59.40;;;;;;6261572;28;20283;-52
2022/06/07 01:50:51;;;;;;;0.20;0.10;;;23.00;59.40;;;;;;6260560;28;20052;-50
2022/06/07 01:53:53;;;;;;;0.63;0.20;;;23.00;59.40;;;;;;6258626;28;20093;-51
2022/06/07 01:56:56;;;;;;;0.20;0.20;;;22.90;59.30;;;;;;6248414;28;20887;-50
2022/06/07 01:59:59;;;;;;;0.22;0.22;;;22.90;59.30;;;;;;6259698;28;20551;-50
2022/06/07 02:03:04;;;;;;;0.20;0.10;;;22.90;59.30;;;;;;6255582;28;20603;-50
2022/06/07 02:06:09;;;;;;;0.30;0.30;;;23.00;59.40;;;;;;6256631;28;20074;-49
2022/06/07 02:09:12;;;;;;;0.30;0.30;;;23.00;59.40;;;;;;6261613;28;20048;-50
2022/06/07 02:12:14;;;;;;;0.20;0.20;;;23.00;59.40;;;;;;6260672;28;20098;-52
2022/06/07 02:15:17;;;;;;;0.10;0.10;;;22.90;59.40;;;;;;6259009;28;20079;-50
2022/06/07 02:18:24;;;;;;;0.32;0.20;;;23.00;59.40;;;;;;6265047;28;20248;-49
2022/06/07 02:21:33;;;;;;;0.30;0.30;;;23.00;59.40;;;;;;6264736;28;20043;-49
2022/06/07 02:24:36;;;;;;;0.28;0.20;;;22.90;59.30;;;;;;6261687;28;20082;-48
2022/06/07 02:27:38;;;;;;;0.30;0.20;;;22.90;59.40;;;;;;6256601;28;20260;-51
2022/06/07 02:30:42;;;;;;;0.22;0.20;;;23.10;59.50;;;;;;6270607;28;20082;-51
2022/06/07 02:33:44;;;;;;;0.20;0.20;;;22.90;59.40;;;;;;6274128;28;20043;-52
2022/06/07 02:36:49;;;;;;;0.20;0.20;;;22.90;59.40;;;;;;6271811;28;20040;-53
2022/06/07 02:39:53;;;;;;;0.50;0.20;;;22.90;59.40;;;;;;6273177;28;20036;-49
2022/06/07 02:42:54;;;;;;;0.30;0.28;;;22.90;59.50;;;;;;6274770;28;20048;-52
2022/06/07 02:45:56;;;;;;;0.20;0.20;;;22.90;59.50;;;;;;6273981;28;20047;-55
2022/06/07 02:48:58;;;;;;;0.28;0.28;;;22.90;59.50;;;;;;6274505;28;20696;-53
2022/06/07 02:52:00;;;;;;;0.50;0.30;;;22.90;59.50;;;;;;6275255;28;20212;-55
2022/06/07 02:55:18;;;;;;;0.28;0.28;;;22.90;59.60;;;;;;6274025;28;20079;-49
2022/06/07 02:58:20;;;;;;;0.20;0.20;;;22.90;59.50;;;;;;6270539;28;20052;-52
2022/06/07 03:01:23;;;;;;;0.20;0.20;;;22.90;59.60;;;;;;6269525;28;20047;-51
2022/06/07 03:04:25;;;;;;;0.60;0.25;;;22.90;59.60;;;;;;6261524;28;20108;-53
2022/06/07 03:07:27;;;;;;;0.70;0.30;;;22.90;59.60;;;;;;6265874;28;20401;-54
2022/06/07 03:10:30;;;;;;;0.30;0.20;;;22.90;59.60;;;;;;6266930;28;20143;-53
2022/06/07 03:13:32;;;;;;;0.22;0.22;;;22.80;59.60;;;;;;6267463;28;20051;-51
2022/06/07 03:16:36;;;;;;;0.20;0.20;;;22.90;59.70;;;;;;6268411;28;20116;-50
2022/06/07 03:19:40;;;;;;;0.40;0.20;;;22.90;59.70;;;;;;6269119;28;20121;-49
2022/06/07 03:22:42;;;;;;;0.30;0.30;;;23.00;59.80;;;;;;6266612;28;20035;-50
2022/06/07 03:25:46;;;;;;;0.50;0.38;;;23.00;59.80;;;;;;6273142;28;20044;-52
2022/06/07 03:28:48;;;;;;;0.60;0.30;;;22.90;59.80;;;;;;6277067;28;20140;-53
2022/06/07 03:31:52;;;;;;;0.38;0.20;;;22.90;59.80;;;;;;6272027;28;20050;-53
2022/06/07 03:34:59;;;;;;;0.43;0.25;;;22.80;59.80;;;;;;6275024;28;20101;-56
2022/06/07 03:38:02;;;;;;;1.10;0.38;;;22.90;60.50;;;;;;6275568;28;20040;-51
2022/06/07 03:41:06;;;;;;;0.38;0.28;;;22.80;59.80;;;;;;6276868;28;21295;-52
2022/06/07 03:44:08;;;;;;;0.75;0.38;;;22.90;60.00;;;;;;6278958;28;20058;-52
2022/06/07 03:47:14;;;;;;;0.28;0.20;;;22.90;59.80;;;;;;6277783;28;20942;-54
2022/06/07 03:50:15;;;;;;;0.20;0.20;;;22.90;59.80;;;;;;6274149;28;20040;-56
2022/06/07 03:53:17;;;;;;;0.25;0.20;;;22.80;59.80;;;;;;6277364;28;20039;-53
2022/06/07 03:56:21;;;;;;;0.30;0.20;;;22.80;59.70;;;;;;6271984;28;20052;-53
2022/06/07 03:59:24;;;;;;;0.50;0.30;;;22.80;59.70;;;;;;6277311;28;20058;-55
2022/06/07 04:02:26;;;;;;;0.32;0.28;;;22.90;59.80;;;;;;6280088;28;20043;-51
2022/06/07 04:05:29;;;;;;;0.32;0.30;;;22.80;59.70;;;;;;6277601;28;20044;-49
2022/06/07 04:08:31;;;;;;;0.55;0.22;;;22.90;59.70;;;;;;6283156;28;20844;-50
2022/06/07 04:11:34;;;;;;;0.38;0.20;;;23.10;59.80;;;;;;6279286;28;20047;-53
2022/06/07 04:14:37;;;;;;;0.20;0.20;;;22.90;59.60;;;;;;6280026;28;20044;-53
2022/06/07 04:17:39;;;;;;;0.20;0.20;;;22.80;59.50;;;;;;6279109;28;20203;-54
2022/06/07 04:20:58;;;;;;;0.28;0.22;;;22.80;59.50;;;;;;6279351;28;20055;-53
2022/06/07 04:24:01;;;;;;;0.30;0.20;;;22.80;59.40;;;;;;6276196;28;20058;-53
2022/06/07 04:27:04;;;;;;;0.50;0.22;;;22.80;59.30;;;;;;6274442;28;20040;-54
2022/06/07 04:30:09;;;;;;;0.55;0.30;;;22.90;59.30;;;;;;6275815;28;20044;-53
2022/06/07 04:33:15;;;;;;;0.50;0.20;;;22.80;59.30;;;;;;6278155;28;20988;-55
2022/06/07 04:36:21;;;;;;;0.57;0.10;;;22.80;59.20;;;;;;6276672;28;20046;-55
2022/06/07 04:39:22;;;;;;;1.00;0.40;;;22.80;59.20;;;;;;6276141;28;20039;-53
2022/06/07 04:42:33;;;;;;;0.20;0.20;;;22.70;59.10;;;;;;6278789;28;20039;-52
2022/06/07 04:45:42;;;;;;;0.28;0.20;;;22.80;59.10;;;;;;6273342;28;20039;-55
2022/06/07 04:48:48;;;;;;;0.30;0.20;;;22.80;59.20;;;;;;6275616;28;20163;-52
2022/06/07 04:51:53;;;;;;;0.47;0.20;;;22.70;59.10;;;;;;6275543;28;20159;-54
2022/06/07 04:55:04;;;;;;;0.77;0.30;;;22.70;59.10;;;;;;6271982;28;20027;-51
2022/06/07 04:58:08;;;;;;;0.35;0.30;;;22.80;59.10;;;;;;6274537;28;20040;-53
2022/06/07 05:01:12;;;;;;;0.55;0.30;;;22.80;59.10;;;;;;6272643;28;20221;-52
2022/06/07 05:04:14;;;;;;;0.28;0.20;;;22.80;59.10;;;;;;6273729;28;20102;-53
2022/06/07 05:07:18;;;;;;;0.30;0.28;;;22.80;59.20;;;;;;6272733;28;20043;-50
2022/06/07 05:10:29;;;;;;;0.60;0.15;;;22.80;59.20;;;;;;6272362;28;20151;-52
2022/06/07 05:13:36;;;;;;;0.20;0.20;;;22.80;59.20;;;;;;6287068;28;20044;-51
2022/06/07 05:16:41;;;;;;;0.20;0.20;;;22.80;59.30;;;;;;6268562;28;20040;-52
2022/06/07 05:19:46;;;;;;;0.68;0.20;;;22.80;59.30;;;;;;6273944;28;20043;-54
2022/06/07 05:22:50;;;;;;;0.30;0.20;;;22.80;59.30;;;;;;6266367;28;20052;-55
2022/06/07 05:26:00;;;;;;;0.60;0.20;;;22.70;59.30;;;;;;6271085;28;20044;-54
2022/06/07 05:29:04;;;;;;;0.15;0.10;;;22.80;59.40;;;;;;6266827;28;20909;-55
2022/06/07 05:32:13;;;;;;;0.20;0.20;;;22.80;59.40;;;;;;6263293;28;20247;-53
2022/06/07 05:38:51;;;;;;;0.40;0.30;;;22.60;59.30;;;;;;6265599;28;20116;-52
2022/06/07 05:41:58;;;;;;;0.40;0.30;;;22.80;59.50;;;;;;6264453;28;20040;-52
2022/06/07 05:45:01;;;;;;;0.35;0.30;;;22.80;59.50;;;;;;6266699;28;20841;-52
2022/06/07 05:48:06;;;;;;;0.50;0.28;;;22.90;59.60;;;;;;6263753;28;20058;-50
2022/06/07 05:51:16;;;;;;;0.22;0.20;;;22.80;59.50;;;;;;6258456;28;20152;-55
2022/06/07 05:54:21;;;;;;;0.25;0.20;;;23.10;59.70;;;;;;6258039;28;21856;-51
2022/06/07 05:57:23;;;;;;;0.28;0.22;;;22.90;59.60;;;;;;6252553;28;21338;-50
2022/06/07 06:00:26;;;;;;;0.22;0.20;;;22.80;59.50;;;;;;6248276;28;20052;-52
2022/06/07 06:03:29;;;;;;;0.43;0.30;;;22.60;59.40;;;;;;6242361;28;20155;-54
2022/06/07 06:06:31;;;;;;;0.30;0.20;;;22.90;59.60;;;;;;6243540;28;20083;-52
2022/06/07 06:12:49;;;;;;;0.50;0.30;;;22.70;59.50;;;;;;6249574;28;20043;-50
2022/06/07 06:16:01;;;;;;;0.32;0.20;;;23.00;59.60;;;;;;6249311;28;21396;-52
2022/06/07 06:19:05;;;;;;;0.55;0.25;;;22.90;59.60;;;;;;6244938;28;21485;-52
2022/06/07 06:22:16;;;;;;;0.43;0.30;;;22.90;60.10;;;;;;6253872;28;20038;-50
2022/06/07 06:25:25;;;;;;;0.20;0.10;;;22.90;59.60;;;;;;6243841;28;20101;-56
2022/06/07 06:28:28;;;;;;;0.63;0.40;;;22.90;59.70;;;;;;6229920;28;20158;-53
2022/06/07 06:31:31;;;;;;;0.45;0.30;;;23.10;60.00;;;;;;6222040;28;20067;-53
2022/06/07 06:34:34;;;;;;;0.60;0.30;;;22.90;59.90;;;;;;6227225;28;20055;-50
2022/06/07 06:37:39;;;;;;;1.30;0.25;;;23.00;60.00;;;;;;6211284;28;20079;-54
2022/06/07 06:40:44;;;;;;;0.38;0.20;;;23.00;60.00;;;;;;6207100;28;20039;-50
2022/06/07 06:43:47;;;;;;;1.85;0.20;;;23.10;60.00;;;;;;6200314;28;20063;-52
2022/06/07 06:46:55;;;;;;;0.70;0.30;;;23.00;60.00;;;;;;6188125;28;20040;-54
2022/06/07 06:49:58;;;;;;;0.28;0.20;;;23.00;60.00;;;;;;6186593;28;20048;-52
2022/06/07 06:52:59;;;;;;;0.65;0.20;;;22.90;59.90;;;;;;6181003;28;20051;-52
2022/06/07 06:56:03;;;;;;;1.38;0.30;;;23.10;60.00;;;;;;6159906;28;22127;-56
2022/06/07 06:59:13;;;;;;;0.25;0.20;;;23.00;60.00;;;;;;6145461;28;20052;-53
2022/06/07 07:02:16;;;;;;;1.05;0.30;;;23.10;60.00;;;;;;6108033;28;20044;-56
2022/06/07 07:05:26;;;;;;;1.77;0.20;;;23.10;60.10;;;;;;6146064;28;20048;-55
2022/06/07 07:08:37;;;;;;;0.60;0.20;;;23.00;60.30;;;;;;6123086;28;20471;-55
2022/06/07 07:11:41;;;;;;;1.35;0.30;;;23.10;60.50;;;;;;6069598;28;20110;-53
2022/06/07 07:14:46;;;;;;;0.43;0.30;;;23.10;60.60;;;;;;6099042;28;20055;-49
2022/06/07 07:17:52;;;;;;;1.17;0.30;;;23.20;60.70;;;;;;6072981;28;20207;-56
2022/06/07 07:20:56;;;;;;;1.48;0.30;;;23.20;60.60;;;;;;6086202;28;20435;-55
2022/06/07 07:24:01;;;;;;;1.17;0.30;;;23.20;61.30;;;;;;6085617;28;20054;-55
2022/06/07 07:27:29;;;;;;;0.77;0.30;;;23.30;60.70;;;;;;6070647;28;38216;-54
2022/06/07 07:30:32;;;;;;;0.77;0.30;;;23.10;60.70;;;;;;6046197;28;35214;-52
2022/06/07 07:33:35;;;;;;;0.43;0.22;;;23.30;60.80;;;;;;6092310;28;22009;-52
2022/06/07 07:36:44;;;;;;;0.57;0.10;;;23.30;60.70;;;;;;6099272;28;20067;-53
2022/06/07 07:39:48;;;;;;;0.70;0.30;;;23.30;60.70;;;;;;6079285;28;20086;-53
2022/06/07 07:42:54;;;;;;;0.75;0.43;;;23.30;61.40;;;;;;6075731;28;30333;-54
2022/06/07 07:46:02;;;;;;;0.63;0.30;;;23.40;60.80;;;;;;6053467;28;20657;-52
2022/06/07 07:49:06;;;;;;;0.85;0.28;;;23.30;60.60;;;;;;6065632;28;20047;-50
2022/06/07 07:52:09;;;;;;;0.93;0.30;;;23.30;60.70;;;;;;6013173;28;20879;-51
2022/06/07 07:55:11;;;;;;;1.20;0.30;;;23.30;60.60;;;;;;6067177;27;20724;-53
2022/06/07 07:58:14;;;;;;;0.65;0.20;;;23.40;60.60;;;;;;6026168;28;21301;-52
2022/06/07 08:01:22;;;;;;;0.17;0.17;;;23.40;60.60;;;;;;6027128;28;47944;-55
2022/06/07 08:04:25;;;;;;;0.43;0.20;;;23.40;60.60;;;;;;6024639;28;20102;-55
2022/06/07 08:07:28;;;;;;;0.88;0.30;;;23.40;60.60;;;;;;6038610;28;20044;-50
2022/06/07 08:10:30;;;;;;;1.27;0.50;;;23.40;60.40;;;;;;6030849;28;20163;-52
2022/06/07 08:13:32;;;;;;;0.75;0.20;;;23.50;60.40;;;;;;6027546;27;20140;-50
2022/06/07 08:16:34;;;;;;;1.17;0.30;;;23.40;60.20;;;;;;6035679;28;20051;-51
2022/06/07 08:20:07;;;;;;;0.57;0.32;;;23.60;60.20;;;;;;6040601;28;21481;-52
2022/06/07 08:23:10;;;;;;;1.58;0.30;;;23.60;60.10;;;;;;5994010;28;20048;-51
2022/06/07 08:26:13;;;;;;;0.25;0.20;;;23.60;60.00;;;;;;6043468;28;20117;-51
2022/06/07 08:29:19;;;;;;;0.45;0.20;;;23.60;59.90;;;;;;6051433;28;20052;-52
2022/06/07 08:32:21;;;;;;;0.90;0.28;;;23.80;59.90;;;;;;6042098;28;20100;-50
2022/06/07 08:38:38;;;;;;;0.75;0.35;;;23.70;59.50;;;;;;6053307;28;20064;-55
2022/06/07 08:41:45;;;;;;;2.38;0.32;;;23.70;59.20;;;;;;6053712;28;20087;-53
2022/06/07 08:44:50;;;;;;;0.60;0.40;;;23.50;59.00;;;;;;6051730;28;20127;-52
2022/06/07 08:47:56;;;;;;;3.42;0.45;;;23.70;58.90;;;;;;6071631;28;20039;-54
2022/06/07 08:51:11;;;;;;;0.43;0.20;;;23.70;58.70;;;;;;6065157;28;20183;-55
2022/06/07 08:54:18;;;;;;;0.40;0.20;;;23.80;58.40;;;;;;6071705;28;20052;-53
2022/06/07 08:57:22;;;;;;;0.57;0.20;;;23.90;58.30;;;;;;6063740;28;20059;-53
2022/06/07 09:00:26;;;;;;;0.20;0.20;;;23.80;58.00;;;;;;6040440;28;20185;-51
2022/06/07 09:03:48;;;;;;;0.20;0.20;;;23.80;57.70;;;;;;6040685;28;20038;-52
2022/06/07 09:06:55;;;;;;;1.75;0.28;;;23.80;57.40;;;;;;6054602;28;20052;-49
2022/06/07 09:13:19;;;;;;;0.60;0.30;;;23.90;57.00;;;;;;6030954;28;20846;-51
2022/06/07 09:16:20;;;;;;;0.20;0.10;;;23.90;56.70;;;;;;6076656;28;20090;-52
2022/06/07 09:19:25;;;;;;;0.40;0.10;;;24.00;56.60;;;;;;6052134;28;20038;-55
2022/06/07 09:22:41;;;;;;;0.95;0.30;;;23.90;56.30;;;;;;6042941;28;20043;-55
2022/06/07 09:25:48;;;;;;;0.50;0.20;;;23.90;55.90;;;;;;6084194;28;20054;-49
2022/06/07 09:28:50;;;;;;;0.38;0.10;;;24.00;55.90;;;;;;6062453;28;20054;-53
2022/06/07 09:31:52;;;;;;;0.50;0.28;;;23.90;55.70;;;;;;6049100;28;21349;-53
2022/06/07 09:34:57;;;;;;;1.50;0.20;;;24.00;55.60;;;;;;6063114;28;20121;-52
2022/06/07 09:38:04;;;;;;;0.98;0.45;;;24.20;55.50;;;;;;6055956;28;21555;-50
2022/06/07 09:44:34;;;;;;;1.20;0.30;;;24.10;55.70;;;;;;6050098;28;20047;-49
2022/06/07 09:47:35;;;;;;;0.25;0.15;;;24.00;55.70;;;;;;6070412;28;20031;-54
2022/06/07 09:50:37;;;;;;;0.95;0.25;;;24.00;55.70;;;;;;6061669;28;20162;-49
2022/06/07 09:53:42;;;;;;;0.88;0.25;;;24.00;55.70;;;;;;6073311;28;20048;-53
2022/06/07 09:57:00;;;;;;;0.40;0.20;;;24.00;55.70;;;;;;6068314;28;20128;-52
2022/06/07 10:00:17;;;;;;;1.52;0.40;;;24.00;55.70;;;;;;6063298;28;20224;-52
2022/06/07 10:03:33;;;;;;;0.68;0.38;;;24.00;55.60;;;;;;6069569;28;20040;-50
2022/06/07 10:06:42;;;;;;;1.75;0.35;;;24.00;55.50;;;;;;6067211;28;20408;-56
2022/06/07 10:09:58;;;;;;;1.48;0.20;;;24.00;55.40;;;;;;6087437;28;20039;-53
2022/06/07 10:13:16;;;;;;;1.35;0.20;;;24.00;55.10;;;;;;6068403;28;20273;-49
2022/06/07 10:16:26;;;;;;;0.85;0.30;;;24.10;55.10;;;;;;6073932;28;20036;-52
2022/06/07 10:19:38;;;;;;;0.68;0.28;;;24.00;54.90;;;;;;6082985;28;20036;-53
2022/06/07 10:22:53;;;;;;;0.50;0.30;;;24.00;54.90;;;;;;6077029;28;20174;-52
2022/06/07 10:26:10;;;;;;;0.28;0.22;;;23.90;54.70;;;;;;6106802;28;20218;-48
2022/06/07 10:29:20;;;;;;;0.40;0.15;;;24.00;54.70;;;;;;6106760;28;20081;-54
2022/06/07 10:32:33;;;;;;;0.50;0.30;;;24.00;54.70;;;;;;6081858;28;20110;-51
2022/06/07 10:35:45;;;;;;;0.30;0.30;;;23.80;54.50;;;;;;6117640;28;20069;-51
2022/06/07 10:39:01;;;;;;;0.60;0.32;;;23.90;55.10;;;;;;6132140;28;20186;-52
2022/06/07 10:42:16;;;;;;;0.38;0.20;;;24.00;54.60;;;;;;6148233;28;20051;-55
2022/06/07 10:45:21;;;;;;;0.45;0.30;;;23.90;54.60;;;;;;6176155;28;22893;-52
2022/06/07 10:48:29;;;;;;;0.20;0.20;;;23.90;54.70;;;;;;6164482;28;21114;-52
2022/06/07 10:55:01;;;;;;;0.55;0.32;;;23.80;54.70;;;;;;6180091;28;21363;-51
2022/06/07 10:58:19;;;;;;;0.30;0.20;;;24.00;54.80;;;;;;6178835;28;20050;-50
2022/06/07 11:01:27;;;;;;;0.20;0.20;;;24.00;55.40;;;;;;6159333;28;20055;-51
2022/06/07 11:11:18;;;;;;;0.75;0.32;;;23.70;54.60;;;;;;6157500;28;20261;-51
2022/06/07 11:14:41;;;;;;;1.55;0.40;;;23.80;54.70;;;;;;6168684;28;20203;-49
2022/06/07 11:17:46;;;;;;;0.55;0.22;;;23.90;54.60;;;;;;6192926;28;20154;-51
2022/06/07 11:20:50;;;;;;;1.67;0.20;;;23.90;54.70;;;;;;6180416;28;20059;-50
2022/06/07 11:23:58;;;;;;;0.60;0.20;;;24.00;54.60;;;;;;6187844;28;20091;-52
2022/06/07 11:27:17;;;;;;;0.88;0.30;;;24.00;54.60;;;;;;6168418;28;21371;-50
2022/06/07 11:30:28;;;;;;;0.43;0.20;;;23.70;54.50;;;;;;6193811;27;20050;-52
2022/06/07 11:33:42;;;;;;;0.20;0.10;;;24.00;54.60;;;;;;6127092;28;29431;-48
2022/06/07 11:36:44;;;;;;;1.30;0.20;;;24.00;54.70;;;;;;6147041;28;20051;-52
2022/06/07 11:39:55;;;;;;;0.40;0.25;;;24.00;54.80;;;;;;6123259;28;20040;-50
2022/06/07 11:42:59;;;;;;;1.00;0.22;;;24.00;54.90;;;;;;6108007;28;20170;-51
2022/06/07 11:46:01;;;;;;;0.68;0.50;;;24.00;54.90;;;;;;6105192;28;20205;-54
2022/06/07 11:49:33;;;;;;;1.20;0.30;;;24.00;54.90;;;;;;6095710;28;20079;-55
2022/06/07 11:52:55;;;;;;;0.55;0.28;;;24.00;54.90;;;;;;6075668;28;21504;-56
2022/06/07 11:56:19;;;;;;;0.98;0.40;;;24.10;55.00;;;;;;6112325;28;20158;-56
2022/06/07 11:59:43;;;;;;;0.75;0.28;;;24.00;54.90;;;;;;6062910;28;21613;-49
2022/06/07 12:03:12;;;;;;;0.55;0.20;;;24.20;55.00;;;;;;6025460;28;20052;-49
2022/06/07 12:06:20;;;;;;;0.90;0.30;;;24.10;54.80;;;;;;5980001;28;20080;-54
2022/06/07 12:09:22;;;;;;;0.35;0.22;;;24.10;54.50;;;;;;6040586;28;20382;-48
2022/06/07 12:12:28;;;;;;;1.48;0.20;;;24.10;54.20;;;;;;6082354;28;20038;-49
2022/06/07 12:15:38;;;;;;;0.70;0.30;;;24.00;53.80;;;;;;6033643;28;20047;-48
2022/06/07 12:18:50;;;;;;;0.30;0.20;;;24.10;53.60;;;;;;6065042;28;20052;-52
2022/06/07 12:21:56;;;;;;;0.73;0.35;;;24.10;53.30;;;;;;6075798;28;20044;-51
2022/06/07 12:25:01;;;;;;;0.20;0.17;;;24.10;53.10;;;;;;6093155;28;20044;-50
2022/06/07 12:28:03;;;;;;;0.50;0.20;;;24.10;53.20;;;;;;6069397;28;20054;-48
2022/06/07 12:31:14;;;;;;;0.65;0.20;;;24.20;53.10;;;;;;6052020;28;20050;-53
2022/06/07 12:34:19;;;;;;;0.40;0.20;;;24.10;53.10;;;;;;6065053;28;20048;-53
2022/06/07 12:37:25;;;;;;;0.60;0.30;;;24.10;53.10;;;;;;6077038;28;20052;-54
2022/06/07 12:40:33;;;;;;;0.13;0.10;;;24.10;53.10;;;;;;6063214;28;20143;-50
2022/06/07 12:43:39;;;;;;;0.80;0.38;;;24.10;53.10;;;;;;6095126;28;20052;-52
2022/06/07 12:46:46;;;;;;;0.55;0.20;;;24.20;53.20;;;;;;6067981;28;20051;-52
2022/06/07 12:49:49;;;;;;;0.38;0.10;;;24.10;53.00;;;;;;6081172;28;20086;-53
2022/06/07 12:52:53;;;;;;;0.47;0.20;;;24.20;53.10;;;;;;6097786;28;20079;-54
2022/06/07 12:56:02;;;;;;;0.25;0.10;;;24.20;53.10;;;;;;6067112;28;20127;-52
2022/06/07 12:59:06;;;;;;;0.52;0.30;;;24.10;53.00;;;;;;6049314;28;20040;-55
2022/06/07 13:02:15;;;;;;;0.38;0.17;;;24.20;53.00;;;;;;6027135;28;20091;-50
2022/06/07 13:05:20;;;;;;;0.45;0.22;;;24.20;53.00;;;;;;6028857;28;20094;-53
2022/06/07 13:08:25;;;;;;;1.58;0.10;;;24.10;53.00;;;;;;6009871;28;21223;-53
2022/06/07 13:11:37;;;;;;;1.20;0.20;;;24.20;53.00;;;;;;6041073;28;20770;-52
2022/06/07 13:14:40;;;;;;;0.10;0.10;;;24.20;53.00;;;;;;6053031;28;20043;-52
2022/06/07 13:17:53;;;;;;;0.35;0.20;;;24.20;52.90;;;;;;6058053;28;20170;-55
2022/06/07 13:21:13;;;;;;;0.38;0.32;;;24.20;52.90;;;;;;6054611;28;20161;-55
2022/06/07 13:24:20;;;;;;;0.63;0.20;;;24.30;52.70;;;;;;6069891;28;20052;-53
2022/06/07 13:27:36;;;;;;;0.22;0.10;;;24.20;52.60;;;;;;6084953;28;20040;-55
2022/06/07 13:30:41;;;;;;;0.20;0.13;;;24.30;52.50;;;;;;6048203;28;20055;-52
2022/06/07 13:34:00;;;;;;;0.52;0.20;;;24.20;52.50;;;;;;6052108;28;20087;-52
2022/06/07 13:37:14;;;;;;;0.45;0.20;;;24.20;52.20;;;;;;6025454;28;20166;-53
2022/06/07 13:40:25;;;;;;;0.88;0.10;;;24.30;52.10;;;;;;6037855;28;20048;-53
2022/06/07 13:43:27;;;;;;;;;;;24.30;52.10;;;;;;6070823;28;20055;-51
2022/06/07 13:46:32;;;;;;;1.10;0.30;;;24.30;52.10;;;;;;6050808;28;20381;-51
2022/06/07 13:56:18;;;;;;;1.40;0.30;;;24.10;51.80;;;;;;6070826;28;20125;-53
2022/06/07 13:59:20;;;;;;;2.15;0.75;;;24.30;51.90;;;;;;6084172;28;20147;-51
2022/06/07 14:02:23;;;;;;;0.45;0.28;;;24.20;51.70;;;;;;6062079;28;20157;-55
2022/06/07 14:05:27;;;;;;;0.90;0.30;;;24.20;51.60;;;;;;6059888;28;22283;-56
2022/06/07 14:08:29;;;;;;;1.33;0.40;;;24.20;51.40;;;;;;6060848;28;20044;-50
2022/06/07 14:11:34;;;;;;;1.58;0.25;;;24.30;51.40;;;;;;6081121;28;20162;-54
2022/06/07 14:14:37;;;;;;;1.02;0.30;;;24.30;51.30;;;;;;6071663;28;21395;-51
2022/06/07 14:17:41;;;;;;;0.85;0.15;;;24.40;51.30;;;;;;6067455;28;21163;-50
2022/06/07 14:20:47;;;;;;;0.57;0.30;;;24.30;51.20;;;;;;6066633;28;21883;-55
2022/06/07 14:23:49;;;;;;;0.90;0.30;;;24.20;51.20;;;;;;6084250;28;20083;-54
2022/06/07 14:26:53;;;;;;;0.93;0.43;;;24.30;51.10;;;;;;6048006;28;20170;-53
2022/06/07 14:29:55;;;;;;;0.50;0.30;;;24.30;51.10;;;;;;6051499;28;23885;-52
2022/06/07 14:33:00;;;;;;;1.45;0.43;;;24.30;51.30;;;;;;6047517;28;20051;-51
2022/06/07 14:36:02;;;;;;;1.70;0.25;;;24.30;51.00;;;;;;6041556;28;20056;-55
2022/06/07 14:39:04;;;;;;;2.67;0.40;;;24.30;50.90;;;;;;6037616;28;20166;-55
2022/06/07 14:42:06;;;;;;;1.20;0.38;;;24.40;51.60;;;;;;6035377;28;21646;-52
2022/06/07 14:45:09;;;;;;;2.42;0.43;;;24.40;50.90;;;;;;6032194;28;20052;-52
2022/06/07 14:48:24;;;;;;;2.25;0.50;;;24.40;50.80;;;;;;6072997;28;20136;-56
2022/06/07 14:51:28;;;;;;;2.75;0.32;;;24.40;50.80;;;;;;6061198;28;21770;-55
2022/06/07 14:54:35;;;;;;;0.82;0.60;;;24.30;50.70;;;;;;6076862;28;20044;-55
2022/06/07 14:57:39;;;;;;;2.22;0.60;;;24.50;50.80;;;;;;6096475;27;20039;-57
2022/06/07 15:00:43;;;;;;;3.97;0.80;;;24.40;50.80;;;;;;6074362;27;20183;-57
2022/06/07 15:03:46;;;;;;;3.42;0.47;;;24.40;50.80;;;;;;6070557;28;20135;-56
2022/06/07 15:06:48;;;;;;;2.78;0.40;;;24.60;50.90;;;;;;6078173;28;22395;-51
2022/06/07 15:09:51;;;;;;;2.80;0.50;;;24.50;50.90;;;;;;6077542;28;20035;-48
2022/06/07 15:12:53;;;;;;;2.08;0.57;;;24.50;51.00;;;;;;6073295;28;20051;-48
2022/06/07 15:16:02;;;;;;;1.17;0.30;;;24.50;50.90;;;;;;6068252;28;20043;-50
2022/06/07 15:19:06;;;;;;;2.03;0.45;;;24.60;51.60;;;;;;6046818;28;20044;-50
2022/06/07 15:22:10;;;;;;;0.98;0.40;;;24.60;51.00;;;;;;6094354;28;20047;-51
2022/06/07 15:25:17;;;;;;;1.40;0.47;;;24.60;51.00;;;;;;6062224;28;20047;-54
2022/06/07 15:28:19;;;;;;;1.73;0.50;;;24.70;51.00;;;;;;6061317;28;20054;-54
2022/06/07 15:31:24;;;;;;;2.05;0.47;;;24.60;51.00;;;;;;6067466;28;20167;-52
2022/06/07 15:34:26;;;;;;;1.33;0.52;;;24.60;50.80;;;;;;6084218;28;20252;-51
2022/06/07 15:37:29;;;;;;;1.73;0.50;;;24.70;50.90;;;;;;6069622;28;20043;-52
2022/06/07 15:40:31;;;;;;;1.83;0.55;;;24.50;50.70;;;;;;6064387;28;20573;-53
2022/06/07 15:43:33;;;;;;;1.33;0.40;;;24.60;50.70;;;;;;6097362;28;21317;-52
2022/06/07 15:46:36;;;;;;;1.08;0.40;;;24.40;50.40;;;;;;6102847;28;20366;-46
2022/06/07 15:49:37;;;;;;;1.00;0.32;;;24.60;50.50;;;;;;6144559;28;22235;-48
2022/06/07 15:52:40;;;;;;;0.47;0.40;;;24.70;50.40;;;;;;6140617;28;20541;-51
2022/06/07 15:55:43;;;;;;;0.55;0.20;;;24.50;50.20;;;;;;6092089;28;20424;-52
2022/06/07 16:01:57;;;;;;;0.52;0.20;;;24.70;50.10;;;;;;6104128;28;20773;-51
2022/06/07 16:04:59;;;;;;;1.90;0.30;;;24.70;50.00;;;;;;6093357;28;20396;-56
2022/06/07 16:08:01;;;;;;;0.47;0.22;;;24.60;50.00;;;;;;6116035;27;20764;-51
2022/06/07 16:11:06;;;;;;;0.52;0.20;;;24.60;49.90;;;;;;6088470;28;20609;-56
2022/06/07 16:14:08;;;;;;;0.95;0.30;;;24.70;49.90;;;;;;6143130;28;20058;-54
2022/06/07 16:17:09;;;;;;;0.57;0.30;;;24.70;49.80;;;;;;6167255;28;20085;-54
2022/06/07 16:20:12;;;;;;;0.93;0.28;;;24.60;49.70;;;;;;6160818;28;20588;-49
2022/06/07 16:23:15;;;;;;;1.60;0.30;;;24.70;49.70;;;;;;6133464;28;20362;-51
2022/06/07 16:26:18;;;;;;;0.45;0.20;;;24.60;50.20;;;;;;6162926;28;20814;-53
2022/06/07 16:35:54;;;;;;;0.70;0.30;;;24.60;49.50;;;;;;6180980;28;20234;-53
2022/06/07 16:38:56;;;;;;;0.60;0.20;;;24.70;49.50;;;;;;6199078;28;20055;-53
2022/06/07 16:41:58;;;;;;;0.93;0.50;;;24.60;49.40;;;;;;6189334;28;20044;-52
2022/06/07 16:45:00;;;;;;;0.93;0.40;;;24.60;49.20;;;;;;6203725;28;20044;-49
2022/06/07 16:48:01;;;;;;;0.52;0.20;;;24.60;49.40;;;;;;6213236;28;20047;-52
2022/06/07 16:51:04;;;;;;;0.68;0.28;;;24.80;49.50;;;;;;6223774;28;20170;-53
2022/06/07 16:54:07;;;;;;;0.82;0.28;;;24.60;49.40;;;;;;6210232;28;20111;-56
2022/06/07 16:57:10;;;;;;;1.27;0.30;;;24.60;49.40;;;;;;6225949;28;20051;-53